sensor_id;sensor_type;location;lat;lon;timestamp;P1;durP1;ratioP1;P2;durP2;ratioP2
44434;SDS011;30138;20.964;105.830;2023-05-07T00:04:14;28.17;;;24.10;;
44434;SDS011;30138;20.964;105.830;2023-05-07T00:09:21;27.77;;;24.73;;
44434;SDS011;30138;20.964;105.830;2023-05-07T00:14:28;27.85;;;24.33;;
44434;SDS011;30138;20.964;105.830;2023-05-07T00:19:37;29.23;;;25.00;;
44434;SDS011;30138;20.964;105.830;2023-05-07T00:24:44;27.85;;;24.65;;
44434;SDS011;30138;20.964;105.830;2023-05-07T00:29:50;27.70;;;24.40;;
44434;SDS011;30138;20.964;105.830;2023-05-07T00:35:01;28.83;;;24.40;;
44434;SDS011;30138;20.964;105.830;2023-05-07T00:40:09;27.92;;;24.90;;
44434;SDS011;30138;20.964;105.830;2023-05-07T00:45:16;27.65;;;24.70;;
44434;SDS011;30138;20.964;105.830;2023-05-07T00:50:24;27.20;;;24.23;;
44434;SDS011;30138;20.964;105.830;2023-05-07T00:55:32;28.45;;;24.08;;
44434;SDS011;30138;20.964;105.830;2023-05-07T01:00:40;27.13;;;24.20;;
44434;SDS011;30138;20.964;105.830;2023-05-07T01:05:50;27.02;;;24.15;;
44434;SDS011;30138;20.964;105.830;2023-05-07T01:10:58;27.93;;;24.97;;
44434;SDS011;30138;20.964;105.830;2023-05-07T01:16:06;27.55;;;24.50;;
44434;SDS011;30138;20.964;105.830;2023-05-07T01:21:18;27.83;;;24.83;;
44434;SDS011;30138;20.964;105.830;2023-05-07T01:32:29;29.15;;;24.85;;
44434;SDS011;30138;20.964;105.830;2023-05-07T01:37:40;28.58;;;25.02;;
44434;SDS011;30138;20.964;105.830;2023-05-07T01:42:48;28.80;;;25.13;;
44434;SDS011;30138;20.964;105.830;2023-05-07T01:47:56;25.85;;;23.08;;
44434;SDS011;30138;20.964;105.830;2023-05-07T01:53:04;27.50;;;24.33;;
44434;SDS011;30138;20.964;105.830;2023-05-07T01:58:14;27.27;;;24.13;;
44434;SDS011;30138;20.964;105.830;2023-05-07T02:03:21;26.77;;;23.88;;
44434;SDS011;30138;20.964;105.830;2023-05-07T02:08:36;27.25;;;24.13;;
44434;SDS011;30138;20.964;105.830;2023-05-07T02:13:48;25.83;;;23.02;;
44434;SDS011;30138;20.964;105.830;2023-05-07T02:18:54;25.48;;;22.77;;
44434;SDS011;30138;20.964;105.830;2023-05-07T02:24:01;27.42;;;23.23;;
44434;SDS011;30138;20.964;105.830;2023-05-07T02:29:12;26.70;;;23.80;;
44434;SDS011;30138;20.964;105.830;2023-05-07T02:34:19;26.65;;;22.92;;
44434;SDS011;30138;20.964;105.830;2023-05-07T02:39:26;26.55;;;23.67;;
44434;SDS011;30138;20.964;105.830;2023-05-07T02:44:34;27.17;;;24.15;;
44434;SDS011;30138;20.964;105.830;2023-05-07T02:49:41;26.33;;;23.23;;
44434;SDS011;30138;20.964;105.830;2023-05-07T02:54:49;25.30;;;22.55;;
44434;SDS011;30138;20.964;105.830;2023-05-07T02:59:58;26.40;;;23.25;;
44434;SDS011;30138;20.964;105.830;2023-05-07T03:05:20;25.63;;;22.83;;
44434;SDS011;30138;20.964;105.830;2023-05-07T03:10:26;26.17;;;23.20;;
44434;SDS011;30138;20.964;105.830;2023-05-07T03:15:35;26.98;;;23.13;;
44434;SDS011;30138;20.964;105.830;2023-05-07T03:20:41;25.70;;;22.92;;
44434;SDS011;30138;20.964;105.830;2023-05-07T03:25:50;24.60;;;22.00;;
44434;SDS011;30138;20.964;105.830;2023-05-07T03:30:59;25.25;;;22.02;;
44434;SDS011;30138;20.964;105.830;2023-05-07T03:36:06;25.25;;;22.55;;
44434;SDS011;30138;20.964;105.830;2023-05-07T03:41:13;25.42;;;22.48;;
44434;SDS011;30138;20.964;105.830;2023-05-07T03:46:22;25.08;;;22.38;;
44434;SDS011;30138;20.964;105.830;2023-05-07T03:51:30;23.90;;;21.40;;
44434;SDS011;30138;20.964;105.830;2023-05-07T03:56:39;26.90;;;22.73;;
44434;SDS011;30138;20.964;105.830;2023-05-07T04:01:48;25.35;;;21.20;;
44434;SDS011;30138;20.964;105.830;2023-05-07T04:06:58;23.80;;;21.30;;
44434;SDS011;30138;20.964;105.830;2023-05-07T04:12:11;26.95;;;23.13;;
44434;SDS011;30138;20.964;105.830;2023-05-07T04:17:21;26.80;;;23.10;;
44434;SDS011;30138;20.964;105.830;2023-05-07T04:22:28;24.50;;;21.90;;
44434;SDS011;30138;20.964;105.830;2023-05-07T04:27:35;25.00;;;22.30;;
44434;SDS011;30138;20.964;105.830;2023-05-07T04:32:44;24.73;;;22.13;;
44434;SDS011;30138;20.964;105.830;2023-05-07T04:37:51;25.42;;;22.40;;
44434;SDS011;30138;20.964;105.830;2023-05-07T04:42:58;24.88;;;21.45;;
44434;SDS011;30138;20.964;105.830;2023-05-07T04:48:10;23.02;;;20.58;;
44434;SDS011;30138;20.964;105.830;2023-05-07T04:53:17;26.85;;;22.80;;
44434;SDS011;30138;20.964;105.830;2023-05-07T04:58:27;24.75;;;22.15;;
44434;SDS011;30138;20.964;105.830;2023-05-07T05:03:36;25.15;;;22.45;;
44434;SDS011;30138;20.964;105.830;2023-05-07T05:08:43;25.13;;;22.52;;
44434;SDS011;30138;20.964;105.830;2023-05-07T05:13:50;26.15;;;23.45;;
44434;SDS011;30138;20.964;105.830;2023-05-07T05:18:58;26.67;;;23.33;;
44434;SDS011;30138;20.964;105.830;2023-05-07T05:24:09;25.00;;;22.40;;
44434;SDS011;30138;20.964;105.830;2023-05-07T05:29:17;26.70;;;23.30;;
44434;SDS011;30138;20.964;105.830;2023-05-07T05:34:33;25.45;;;22.75;;
44434;SDS011;30138;20.964;105.830;2023-05-07T05:39:41;25.35;;;22.65;;
44434;SDS011;30138;20.964;105.830;2023-05-07T05:44:48;25.77;;;22.27;;
44434;SDS011;30138;20.964;105.830;2023-05-07T05:50:00;25.67;;;22.88;;
44434;SDS011;30138;20.964;105.830;2023-05-07T05:55:08;25.48;;;22.15;;
44434;SDS011;30138;20.964;105.830;2023-05-07T06:00:15;25.15;;;22.50;;
44434;SDS011;30138;20.964;105.830;2023-05-07T06:05:34;24.90;;;22.40;;
44434;SDS011;30138;20.964;105.830;2023-05-07T06:10:42;26.85;;;23.95;;
44434;SDS011;30138;20.964;105.830;2023-05-07T06:15:49;26.05;;;23.27;;
44434;SDS011;30138;20.964;105.830;2023-05-07T06:20:58;25.88;;;23.00;;
44434;SDS011;30138;20.964;105.830;2023-05-07T06:26:08;27.25;;;24.15;;
44434;SDS011;30138;20.964;105.830;2023-05-07T06:31:18;26.57;;;23.70;;
44434;SDS011;30138;20.964;105.830;2023-05-07T06:36:37;25.23;;;22.50;;
44434;SDS011;30138;20.964;105.830;2023-05-07T06:42:24;28.05;;;23.25;;
44434;SDS011;30138;20.964;105.830;2023-05-07T06:47:35;26.27;;;23.58;;
44434;SDS011;30138;20.964;105.830;2023-05-07T06:52:44;26.98;;;23.92;;
44434;SDS011;30138;20.964;105.830;2023-05-07T06:57:51;25.55;;;22.95;;
44434;SDS011;30138;20.964;105.830;2023-05-07T07:03:01;25.73;;;23.03;;
44434;SDS011;30138;20.964;105.830;2023-05-07T07:08:10;25.65;;;22.98;;
44434;SDS011;30138;20.964;105.830;2023-05-07T07:13:20;25.85;;;22.88;;
44434;SDS011;30138;20.964;105.830;2023-05-07T07:18:27;26.20;;;23.38;;
44434;SDS011;30138;20.964;105.830;2023-05-07T07:23:35;26.33;;;23.58;;
44434;SDS011;30138;20.964;105.830;2023-05-07T07:28:43;28.30;;;24.80;;
44434;SDS011;30138;20.964;105.830;2023-05-07T07:33:55;25.85;;;23.20;;
44434;SDS011;30138;20.964;105.830;2023-05-07T07:39:04;27.42;;;24.38;;
44434;SDS011;30138;20.964;105.830;2023-05-07T07:44:11;27.05;;;24.15;;
44434;SDS011;30138;20.964;105.830;2023-05-07T07:49:24;26.95;;;24.15;;
44434;SDS011;30138;20.964;105.830;2023-05-07T07:54:36;27.60;;;24.67;;
44434;SDS011;30138;20.964;105.830;2023-05-07T07:59:44;29.00;;;25.87;;
44434;SDS011;30138;20.964;105.830;2023-05-07T08:04:51;27.65;;;24.75;;
44434;SDS011;30138;20.964;105.830;2023-05-07T08:10:01;27.42;;;24.52;;
44434;SDS011;30138;20.964;105.830;2023-05-07T08:15:09;27.58;;;24.75;;
44434;SDS011;30138;20.964;105.830;2023-05-07T08:20:16;27.98;;;24.88;;
44434;SDS011;30138;20.964;105.830;2023-05-07T08:25:25;29.05;;;25.52;;
44434;SDS011;30138;20.964;105.830;2023-05-07T08:30:33;30.13;;;26.95;;
44434;SDS011;30138;20.964;105.830;2023-05-07T08:35:40;30.13;;;26.90;;
44434;SDS011;30138;20.964;105.830;2023-05-07T08:40:50;29.38;;;26.15;;
44434;SDS011;30138;20.964;105.830;2023-05-07T08:45:59;31.07;;;27.60;;
44434;SDS011;30138;20.964;105.830;2023-05-07T08:51:12;31.25;;;27.85;;
44434;SDS011;30138;20.964;105.830;2023-05-07T08:56:24;30.90;;;27.47;;
44434;SDS011;30138;20.964;105.830;2023-05-07T09:01:31;32.80;;;27.55;;
44434;SDS011;30138;20.964;105.830;2023-05-07T09:06:38;33.13;;;28.88;;
44434;SDS011;30138;20.964;105.830;2023-05-07T09:11:51;34.25;;;28.25;;
44434;SDS011;30138;20.964;105.830;2023-05-07T09:17:07;32.10;;;28.02;;
44434;SDS011;30138;20.964;105.830;2023-05-07T09:22:14;33.13;;;28.20;;
44434;SDS011;30138;20.964;105.830;2023-05-07T09:27:31;34.13;;;30.38;;
44434;SDS011;30138;20.964;105.830;2023-05-07T09:32:38;34.78;;;29.60;;
44434;SDS011;30138;20.964;105.830;2023-05-07T09:37:50;31.58;;;28.20;;
44434;SDS011;30138;20.964;105.830;2023-05-07T09:43:10;34.55;;;28.35;;
44434;SDS011;30138;20.964;105.830;2023-05-07T09:48:30;34.47;;;30.00;;
44434;SDS011;30138;20.964;105.830;2023-05-07T09:53:43;33.35;;;28.90;;
44434;SDS011;30138;20.964;105.830;2023-05-07T09:58:54;34.83;;;29.97;;
44434;SDS011;30138;20.964;105.830;2023-05-07T10:04:07;34.30;;;30.20;;
44434;SDS011;30138;20.964;105.830;2023-05-07T10:09:17;33.90;;;30.20;;
44434;SDS011;30138;20.964;105.830;2023-05-07T10:14:27;33.08;;;28.33;;
44434;SDS011;30138;20.964;105.830;2023-05-07T10:19:34;33.28;;;29.67;;
44434;SDS011;30138;20.964;105.830;2023-05-07T10:24:44;33.35;;;29.75;;
44434;SDS011;30138;20.964;105.830;2023-05-07T10:29:58;32.08;;;28.67;;
44434;SDS011;30138;20.964;105.830;2023-05-07T10:35:17;32.58;;;28.48;;
44434;SDS011;30138;20.964;105.830;2023-05-07T10:40:26;34.45;;;28.83;;
44434;SDS011;30138;20.964;105.830;2023-05-07T10:45:37;31.33;;;27.92;;
44434;SDS011;30138;20.964;105.830;2023-05-07T10:50:44;30.38;;;26.33;;
44434;SDS011;30138;20.964;105.830;2023-05-07T10:55:52;32.10;;;27.98;;
44434;SDS011;30138;20.964;105.830;2023-05-07T11:01:52;30.60;;;27.05;;
44434;SDS011;30138;20.964;105.830;2023-05-07T11:07:25;31.38;;;27.80;;
44434;SDS011;30138;20.964;105.830;2023-05-07T11:12:55;32.00;;;27.83;;
44434;SDS011;30138;20.964;105.830;2023-05-07T11:18:21;30.30;;;26.98;;
44434;SDS011;30138;20.964;105.830;2023-05-07T11:29:16;32.25;;;26.67;;
44434;SDS011;30138;20.964;105.830;2023-05-07T11:34:28;32.95;;;27.50;;
44434;SDS011;30138;20.964;105.830;2023-05-07T11:39:34;36.42;;;28.38;;
44434;SDS011;30138;20.964;105.830;2023-05-07T11:44:42;31.20;;;27.63;;
44434;SDS011;30138;20.964;105.830;2023-05-07T11:49:52;33.60;;;27.73;;
44434;SDS011;30138;20.964;105.830;2023-05-07T11:55:00;32.77;;;28.80;;
44434;SDS011;30138;20.964;105.830;2023-05-07T12:00:08;31.98;;;28.17;;
44434;SDS011;30138;20.964;105.830;2023-05-07T12:10:26;31.02;;;27.33;;
44434;SDS011;30138;20.964;105.830;2023-05-07T12:15:36;31.67;;;27.35;;
44434;SDS011;30138;20.964;105.830;2023-05-07T12:20:45;32.92;;;27.83;;
44434;SDS011;30138;20.964;105.830;2023-05-07T12:25:52;35.72;;;28.92;;
44434;SDS011;30138;20.964;105.830;2023-05-07T12:30:59;33.97;;;28.58;;
44434;SDS011;30138;20.964;105.830;2023-05-07T12:36:11;34.35;;;29.17;;
44434;SDS011;30138;20.964;105.830;2023-05-07T12:41:18;34.60;;;28.50;;
44434;SDS011;30138;20.964;105.830;2023-05-07T12:46:28;41.80;;;29.73;;
44434;SDS011;30138;20.964;105.830;2023-05-07T12:51:38;35.90;;;29.45;;
44434;SDS011;30138;20.964;105.830;2023-05-07T12:56:46;37.95;;;29.73;;
44434;SDS011;30138;20.964;105.830;2023-05-07T13:02:05;36.95;;;30.45;;
44434;SDS011;30138;20.964;105.830;2023-05-07T13:07:16;38.90;;;31.05;;
44434;SDS011;30138;20.964;105.830;2023-05-07T13:12:23;37.80;;;31.05;;
44434;SDS011;30138;20.964;105.830;2023-05-07T13:17:29;41.50;;;31.58;;
44434;SDS011;30138;20.964;105.830;2023-05-07T13:22:38;43.60;;;33.17;;
44434;SDS011;30138;20.964;105.830;2023-05-07T13:27:44;43.95;;;33.65;;
44434;SDS011;30138;20.964;105.830;2023-05-07T13:32:53;46.72;;;34.97;;
44434;SDS011;30138;20.964;105.830;2023-05-07T13:38:04;52.67;;;31.80;;
44434;SDS011;30138;20.964;105.830;2023-05-07T13:43:11;44.65;;;31.00;;
44434;SDS011;30138;20.964;105.830;2023-05-07T13:48:19;36.30;;;29.80;;
44434;SDS011;30138;20.964;105.830;2023-05-07T13:53:29;39.92;;;29.23;;
44434;SDS011;30138;20.964;105.830;2023-05-07T13:58:35;38.50;;;28.90;;
44434;SDS011;30138;20.964;105.830;2023-05-07T14:03:42;39.33;;;28.25;;
44434;SDS011;30138;20.964;105.830;2023-05-07T14:08:52;38.05;;;27.33;;
44434;SDS011;30138;20.964;105.830;2023-05-07T14:13:59;38.03;;;25.02;;
44434;SDS011;30138;20.964;105.830;2023-05-07T14:19:07;36.15;;;27.10;;
44434;SDS011;30138;20.964;105.830;2023-05-07T14:24:15;31.80;;;25.45;;
44434;SDS011;30138;20.964;105.830;2023-05-07T14:29:22;38.35;;;26.48;;
44434;SDS011;30138;20.964;105.830;2023-05-07T14:34:29;36.03;;;27.35;;
44434;SDS011;30138;20.964;105.830;2023-05-07T14:39:38;40.00;;;28.20;;
44434;SDS011;30138;20.964;105.830;2023-05-07T14:44:46;33.13;;;28.08;;
44434;SDS011;30138;20.964;105.830;2023-05-07T14:49:54;38.40;;;29.20;;
44434;SDS011;30138;20.964;105.830;2023-05-07T14:55:05;35.85;;;27.63;;
44434;SDS011;30138;20.964;105.830;2023-05-07T15:00:13;37.10;;;28.60;;
44434;SDS011;30138;20.964;105.830;2023-05-07T15:05:21;35.10;;;28.05;;
44434;SDS011;30138;20.964;105.830;2023-05-07T15:10:29;34.38;;;28.17;;
44434;SDS011;30138;20.964;105.830;2023-05-07T15:15:42;37.70;;;30.13;;
44434;SDS011;30138;20.964;105.830;2023-05-07T15:20:49;38.80;;;29.50;;
44434;SDS011;30138;20.964;105.830;2023-05-07T15:25:58;38.13;;;30.30;;
44434;SDS011;30138;20.964;105.830;2023-05-07T15:31:05;37.72;;;30.20;;
44434;SDS011;30138;20.964;105.830;2023-05-07T15:36:11;35.65;;;29.70;;
44434;SDS011;30138;20.964;105.830;2023-05-07T15:41:19;37.88;;;29.58;;
44434;SDS011;30138;20.964;105.830;2023-05-07T15:46:26;36.30;;;29.10;;
44434;SDS011;30138;20.964;105.830;2023-05-07T15:51:34;36.17;;;29.30;;
44434;SDS011;30138;20.964;105.830;2023-05-07T15:56:43;36.00;;;28.20;;
44434;SDS011;30138;20.964;105.830;2023-05-07T16:01:49;36.33;;;29.70;;
44434;SDS011;30138;20.964;105.830;2023-05-07T16:06:58;38.13;;;30.55;;
44434;SDS011;30138;20.964;105.830;2023-05-07T16:12:23;39.20;;;30.52;;
44434;SDS011;30138;20.964;105.830;2023-05-07T16:17:30;37.70;;;29.35;;
44434;SDS011;30138;20.964;105.830;2023-05-07T16:22:49;35.42;;;29.33;;
44434;SDS011;30138;20.964;105.830;2023-05-07T16:27:59;35.60;;;29.65;;
44434;SDS011;30138;20.964;105.830;2023-05-07T16:33:07;38.77;;;30.60;;
44434;SDS011;30138;20.964;105.830;2023-05-07T16:38:13;38.20;;;30.60;;
44434;SDS011;30138;20.964;105.830;2023-05-07T16:43:21;36.85;;;29.85;;
44434;SDS011;30138;20.964;105.830;2023-05-07T16:48:31;37.25;;;29.95;;
44434;SDS011;30138;20.964;105.830;2023-05-07T16:53:37;42.65;;;32.92;;
44434;SDS011;30138;20.964;105.830;2023-05-07T16:59:08;37.88;;;30.45;;
44434;SDS011;30138;20.964;105.830;2023-05-07T17:04:15;38.97;;;30.48;;
44434;SDS011;30138;20.964;105.830;2023-05-07T17:09:22;35.55;;;29.55;;
44434;SDS011;30138;20.964;105.830;2023-05-07T17:14:30;35.95;;;29.98;;
44434;SDS011;30138;20.964;105.830;2023-05-07T17:19:37;37.75;;;29.85;;
44434;SDS011;30138;20.964;105.830;2023-05-07T17:24:44;38.20;;;30.33;;
44434;SDS011;30138;20.964;105.830;2023-05-07T17:29:53;39.03;;;30.75;;
44434;SDS011;30138;20.964;105.830;2023-05-07T17:34:59;38.17;;;30.23;;
44434;SDS011;30138;20.964;105.830;2023-05-07T17:40:06;35.88;;;29.75;;
44434;SDS011;30138;20.964;105.830;2023-05-07T17:45:15;37.75;;;29.58;;
44434;SDS011;30138;20.964;105.830;2023-05-07T17:50:21;37.35;;;30.10;;
44434;SDS011;30138;20.964;105.830;2023-05-07T17:55:29;36.92;;;29.90;;
44434;SDS011;30138;20.964;105.830;2023-05-07T18:00:42;36.42;;;29.77;;
44434;SDS011;30138;20.964;105.830;2023-05-07T18:05:49;36.80;;;29.95;;
44434;SDS011;30138;20.964;105.830;2023-05-07T18:11:21;34.88;;;30.15;;
44434;SDS011;30138;20.964;105.830;2023-05-07T18:16:29;38.17;;;31.55;;
44434;SDS011;30138;20.964;105.830;2023-05-07T18:21:36;35.35;;;30.65;;
44434;SDS011;30138;20.964;105.830;2023-05-07T18:26:42;38.17;;;29.40;;
44434;SDS011;30138;20.964;105.830;2023-05-07T18:31:52;36.17;;;30.17;;
44434;SDS011;30138;20.964;105.830;2023-05-07T18:37:00;40.65;;;31.13;;
44434;SDS011;30138;20.964;105.830;2023-05-07T18:42:06;38.17;;;30.40;;
44434;SDS011;30138;20.964;105.830;2023-05-07T18:47:15;36.28;;;30.40;;
44434;SDS011;30138;20.964;105.830;2023-05-07T18:52:23;37.45;;;30.00;;
44434;SDS011;30138;20.964;105.830;2023-05-07T18:57:31;39.28;;;29.60;;
44434;SDS011;30138;20.964;105.830;2023-05-07T19:02:40;34.88;;;28.75;;
44434;SDS011;30138;20.964;105.830;2023-05-07T19:07:47;35.28;;;29.40;;
44434;SDS011;30138;20.964;105.830;2023-05-07T19:12:54;37.08;;;29.88;;
44434;SDS011;30138;20.964;105.830;2023-05-07T19:18:03;36.95;;;29.08;;
44434;SDS011;30138;20.964;105.830;2023-05-07T19:23:10;38.95;;;29.25;;
44434;SDS011;30138;20.964;105.830;2023-05-07T19:28:17;33.60;;;29.02;;
44434;SDS011;30138;20.964;105.830;2023-05-07T19:33:25;36.15;;;28.67;;
44434;SDS011;30138;20.964;105.830;2023-05-07T19:38:32;35.22;;;28.70;;
44434;SDS011;30138;20.964;105.830;2023-05-07T19:43:39;35.88;;;29.52;;
44434;SDS011;30138;20.964;105.830;2023-05-07T19:48:48;35.30;;;28.83;;
44434;SDS011;30138;20.964;105.830;2023-05-07T19:53:55;32.47;;;27.77;;
44434;SDS011;30138;20.964;105.830;2023-05-07T19:59:01;35.15;;;28.77;;
44434;SDS011;30138;20.964;105.830;2023-05-07T20:04:10;34.00;;;29.13;;
44434;SDS011;30138;20.964;105.830;2023-05-07T20:09:17;32.67;;;27.53;;
44434;SDS011;30138;20.964;105.830;2023-05-07T20:14:24;33.55;;;28.35;;
44434;SDS011;30138;20.964;105.830;2023-05-07T20:19:32;33.15;;;27.92;;
44434;SDS011;30138;20.964;105.830;2023-05-07T20:24:40;32.72;;;28.20;;
44434;SDS011;30138;20.964;105.830;2023-05-07T20:29:46;30.35;;;26.92;;
44434;SDS011;30138;20.964;105.830;2023-05-07T20:34:55;33.08;;;27.17;;
44434;SDS011;30138;20.964;105.830;2023-05-07T20:40:01;34.83;;;26.90;;
44434;SDS011;30138;20.964;105.830;2023-05-07T20:45:09;32.55;;;27.05;;
44434;SDS011;30138;20.964;105.830;2023-05-07T20:50:18;33.08;;;27.98;;
44434;SDS011;30138;20.964;105.830;2023-05-07T20:55:26;30.92;;;26.55;;
44434;SDS011;30138;20.964;105.830;2023-05-07T21:00:33;32.45;;;26.08;;
44434;SDS011;30138;20.964;105.830;2023-05-07T21:05:43;33.22;;;27.15;;
44434;SDS011;30138;20.964;105.830;2023-05-07T21:10:56;29.75;;;25.55;;
44434;SDS011;30138;20.964;105.830;2023-05-07T21:16:04;29.80;;;26.02;;
44434;SDS011;30138;20.964;105.830;2023-05-07T21:21:12;29.60;;;25.10;;
44434;SDS011;30138;20.964;105.830;2023-05-07T21:26:19;28.80;;;25.15;;
44434;SDS011;30138;20.964;105.830;2023-05-07T21:31:25;30.50;;;25.70;;
44434;SDS011;30138;20.964;105.830;2023-05-07T21:36:34;30.75;;;26.65;;
44434;SDS011;30138;20.964;105.830;2023-05-07T21:41:41;30.80;;;25.38;;
44434;SDS011;30138;20.964;105.830;2023-05-07T21:46:47;28.73;;;25.10;;
44434;SDS011;30138;20.964;105.830;2023-05-07T21:51:56;28.70;;;25.17;;
44434;SDS011;30138;20.964;105.830;2023-05-07T21:57:03;31.65;;;24.88;;
44434;SDS011;30138;20.964;105.830;2023-05-07T22:02:09;29.65;;;25.10;;
44434;SDS011;30138;20.964;105.830;2023-05-07T22:07:18;28.48;;;24.50;;
44434;SDS011;30138;20.964;105.830;2023-05-07T22:12:26;28.65;;;25.08;;
44434;SDS011;30138;20.964;105.830;2023-05-07T22:17:33;29.35;;;24.10;;
44434;SDS011;30138;20.964;105.830;2023-05-07T22:22:49;26.67;;;23.45;;
44434;SDS011;30138;20.964;105.830;2023-05-07T22:27:58;27.63;;;24.13;;
44434;SDS011;30138;20.964;105.830;2023-05-07T22:33:05;28.48;;;24.20;;
44434;SDS011;30138;20.964;105.830;2023-05-07T22:38:15;28.33;;;23.80;;
44434;SDS011;30138;20.964;105.830;2023-05-07T22:43:22;28.63;;;24.80;;
44434;SDS011;30138;20.964;105.830;2023-05-07T22:48:30;26.92;;;23.08;;
44434;SDS011;30138;20.964;105.830;2023-05-07T22:53:40;27.70;;;23.67;;
44434;SDS011;30138;20.964;105.830;2023-05-07T22:58:46;28.67;;;24.38;;
44434;SDS011;30138;20.964;105.830;2023-05-07T23:03:53;26.65;;;23.25;;
44434;SDS011;30138;20.964;105.830;2023-05-07T23:09:02;29.02;;;23.85;;
44434;SDS011;30138;20.964;105.830;2023-05-07T23:14:10;26.17;;;23.27;;
44434;SDS011;30138;20.964;105.830;2023-05-07T23:19:17;26.13;;;23.33;;
44434;SDS011;30138;20.964;105.830;2023-05-07T23:24:25;26.42;;;23.35;;
44434;SDS011;30138;20.964;105.830;2023-05-07T23:29:33;25.98;;;23.08;;
44434;SDS011;30138;20.964;105.830;2023-05-07T23:34:39;24.40;;;21.80;;
44434;SDS011;30138;20.964;105.830;2023-05-07T23:39:53;25.17;;;22.48;;
44434;SDS011;30138;20.964;105.830;2023-05-07T23:45:00;25.85;;;23.05;;
44434;SDS011;30138;20.964;105.830;2023-05-07T23:50:07;26.83;;;23.73;;
44434;SDS011;30138;20.964;105.830;2023-05-07T23:55:17;25.95;;;22.52;;
